Latest Weather Observations for Cowley Beach (Defence)

IDQ60801

Issued at 9:02 pm EST Thursday 17 January 2019 (issued every 10 minutes, with the page automatically refreshed every 10 minutes)

About weather observations | Map of weather stations | Latest weather observations for QLD | Other Formats
Station Details ID: 032194 Name: COWLEY BEACH (DEFENCE) Lat: -17.69 Lon: 146.11 Height: 4.25 m
Data from the previous 72 hours. | See also: Recent months for locations in Queensland
Date/Time
EST
Temp
°C
App
Temp
°C
Dew
Point
°C
Rel
Hum
%
Delta-T
°C
Wind Press
QNH
hPa
Press
MSL
hPa
Rain since
9am
mm
Dir  Spd
km/h
Gust
km/h
Spd
kts
Gust
kts
17/09:00pm 27.1 30.3 21.2 70 3.9 SSE 6 9 3 5 - - 0.0
17/08:30pm 27.2 30.2 20.8 68 4.2 SE 6 11 3 6 - - 0.0
17/08:00pm 27.4 30.3 21.0 68 4.2 SE 7 13 4 7 - - 0.0
17/07:30pm 27.5 30.7 21.3 69 4.1 SE 6 13 3 7 - - 0.0
17/07:00pm 27.5 30.5 20.8 67 4.4 SE 6 13 3 7 - - 0.0
17/06:30pm 27.9 31.1 21.2 67 4.5 SE 6 15 3 8 - - 0.0
17/06:00pm 28.2 31.1 21.0 65 4.8 SE 7 15 4 8 - - 0.0
17/05:30pm 28.9 31.8 20.6 61 5.5 SE 6 11 3 6 - - 0.0
17/05:00pm 29.5 32.3 20.9 60 5.7 SE 7 11 4 6 - - 0.0
17/04:30pm 30.1 33.4 21.5 60 5.8 SE 6 13 3 7 - - 0.0
17/04:00pm 29.9 33.1 21.6 61 5.6 ESE 7 13 4 7 - - 0.0
17/03:30pm 30.0 33.2 21.7 61 5.6 SE 7 13 4 7 - - 0.0
17/03:00pm 30.0 33.0 21.9 62 5.5 ESE 9 17 5 9 - - 0.0
17/02:30pm 30.2 33.5 21.8 60 5.7 SE 7 13 4 7 - - 0.0
17/02:00pm 30.6 34.7 23.0 64 5.2 ESE 6 11 3 6 - - 0.0
17/01:30pm 30.1 33.8 22.3 63 5.3 ESE 6 11 3 6 - - 0.0
17/01:00pm 29.4 32.7 21.4 62 5.4 ESE 6 9 3 5 - - 0.0
17/12:30pm 28.9 31.7 20.9 62 5.3 E 7 11 4 6 - - 0.0
17/12:00pm 29.2 32.4 21.2 62 5.3 E 6 9 3 5 - - 0.0
17/11:30am 29.1 32.5 21.6 64 5.0 E 6 9 3 5 - - 0.0
17/11:00am 29.6 32.5 21.8 63 5.3 E 9 13 5 7 - - 0.0
17/10:30am 29.2 31.8 21.2 62 5.3 E 9 15 5 8 - - 0.0
17/10:00am 28.5 30.7 20.5 62 5.3 ENE 9 15 5 8 - - 0.0
17/09:30am 28.8 31.7 21.8 66 4.7 E 9 15 5 8 - - 0.0
17/09:00am 28.3 30.5 21.1 65 4.8 ENE 11 17 6 9 - - 0.0
17/08:30am 28.0 32.1 20.8 65 4.8 CALM 0 4 0 2 - - 0.0
17/08:00am 27.0 31.4 21.3 71 3.8 CALM 0 0 0 0 - - 0.0
17/07:30am 25.4 30.0 21.7 80 2.5 CALM 0 4 0 2 - - 0.0
17/07:00am 23.8 28.5 21.9 89 1.3 CALM 0 0 0 0 - - 0.0
17/06:30am 22.8 27.2 21.3 91 1.0 CALM 0 0 0 0 - - 0.0
17/06:00am 22.4 26.6 20.9 91 1.0 CALM 0 0 0 0 - - 0.0
17/05:30am 22.8 27.1 21.1 90 1.1 CALM 0 2 0 1 - - 0.0
17/05:00am 22.9 26.7 21.0 89 1.2 WNW 2 6 1 3 - - 0.0
17/04:30am 23.0 26.7 20.7 87 1.5 WNW 2 6 1 3 - - 0.0
17/04:00am 23.4 26.7 20.7 85 1.8 SW 4 7 2 4 - - 0.0
17/03:30am 23.3 26.5 20.4 84 1.9 SW 4 7 2 4 - - 0.0
17/03:00am 23.8 27.1 20.7 83 2.0 SSW 4 7 2 4 - - 0.0
17/02:30am 24.9 28.0 20.2 75 3.1 SSW 4 6 2 3 - - 0.0
17/02:00am 26.7 29.7 20.8 70 3.9 ESE 6 9 3 5 - - 0.0
17/01:30am 26.6 29.3 20.7 70 3.9 ESE 7 11 4 6 - - 0.0
17/01:00am 26.6 29.6 20.9 71 3.8 ESE 6 11 3 6 - - 0.0
17/12:30am 26.4 29.7 20.7 71 3.7 SE 4 9 2 5 - - 0.0
17/12:00am 26.4 29.8 21.6 75 3.2 ESE 6 11 3 6 - - 0.0
 
Date/Time
EST
Temp
°C
App
Temp
°C
Dew
Point
°C
Rel
Hum
%
Delta-T
°C
Wind Press
QNH
hPa
Press
MSL
hPa
Rain since
9am
mm
Dir  Spd
km/h
Gust
km/h
Spd
kts
Gust
kts
16/11:30pm 26.3 30.2 21.1 73 3.4 SSE 2 9 1 5 - - 0.0
16/11:00pm 26.9 30.3 21.0 70 3.9 SE 4 11 2 6 - - 0.0
16/10:30pm 27.0 30.2 21.3 71 3.8 SE 6 11 3 6 - - 0.0
16/10:00pm 27.1 30.5 21.6 72 3.7 ESE 6 11 3 6 - - 0.0
16/09:30pm 27.3 30.8 21.8 72 3.7 ESE 6 11 3 6 - - 0.0
16/09:00pm 27.3 30.7 21.6 71 3.8 ESE 6 11 3 6 - - 0.0
16/08:30pm 27.3 30.3 21.3 69 4.0 SE 7 11 4 6 - - 0.0
16/08:00pm 27.4 30.6 21.7 71 3.8 SE 7 13 4 7 - - 0.0
16/07:30pm 27.4 30.7 21.9 72 3.7 ESE 7 15 4 8 - - 0.0
16/07:00pm 27.5 30.5 21.3 69 4.1 SE 7 13 4 7 - - 0.0
16/06:30pm 27.8 31.1 21.8 70 4.0 SE 7 11 4 6 - - 0.0
16/06:00pm 28.1 31.3 21.6 68 4.3 SE 7 13 4 7 - - 0.0
16/05:30pm 28.4 31.6 21.7 67 4.5 SSE 7 15 4 8 - - 0.0
16/05:00pm 29.4 32.9 22.1 65 4.9 ESE 7 13 4 7 - - 0.0
16/04:30pm 28.8 31.9 21.1 63 5.1 SE 6 15 3 8 - - 0.0
16/04:00pm 30.1 33.7 22.3 63 5.3 SE 7 17 4 9 - - 0.0
16/03:30pm 30.1 33.3 22.3 63 5.3 SE 9 17 5 9 - - 0.0
16/03:00pm 30.4 33.4 22.0 60 5.7 ESE 9 17 5 9 - - 0.0
16/02:30pm 30.4 33.6 22.3 62 5.5 SE 9 15 5 8 - - 0.0
16/02:00pm 30.4 33.7 22.6 63 5.3 SE 9 13 5 7 - - 0.0
16/01:30pm 30.5 34.4 22.9 64 5.2 ESE 7 15 4 8 - - 0.0
16/01:00pm 30.5 34.3 22.4 62 5.5 ESE 6 11 3 6 - - 0.0
16/12:30pm 29.9 33.4 22.1 63 5.3 SSE 7 15 4 8 - - 0.0
16/12:00pm 30.6 34.7 23.0 64 5.2 SE 6 13 3 7 - - 0.0
16/11:30am 29.5 32.6 21.4 61 5.4 SSE 7 15 4 8 - - 0.0
16/11:00am 30.8 35.1 22.7 62 5.5 SSE 4 9 2 5 - - 0.0
16/10:30am 29.7 33.0 21.4 61 5.6 SE 6 13 3 7 - - 0.0
16/10:00am 30.2 33.7 22.1 62 5.5 SE 7 11 4 6 - - 0.0
16/09:30am 29.8 33.5 22.5 65 5.0 SE 7 13 4 7 - - 0.0
16/09:00am 29.0 33.0 22.7 69 4.3 ESE 6 11 3 6 - - 2.0
16/08:30am 28.7 31.9 21.7 66 4.7 ESE 7 11 4 6 - - 1.8
16/08:00am 28.3 31.4 22.1 69 4.2 ESE 9 17 5 9 - - 1.8
16/07:30am 27.5 30.8 21.8 71 3.8 E 7 13 4 7 - - 1.8
16/07:00am 27.2 30.4 21.7 72 3.7 ESE 7 13 4 7 - - 1.8
16/06:30am 26.6 30.6 22.7 79 2.6 SE 6 9 3 5 - - 1.8
16/06:00am 26.8 30.4 22.4 77 3.0 ESE 7 11 4 6 - - 1.8
16/05:30am 26.4 29.9 21.8 76 3.1 SE 6 9 3 5 - - 1.8
16/05:00am 26.2 29.8 22.1 78 2.7 ESE 6 13 3 7 - - 1.8
16/04:30am 25.1 29.2 22.2 84 1.9 ESE 4 9 2 5 - - 1.8
16/04:00am 25.9 29.4 22.2 80 2.5 E 7 13 4 7 - - 1.8
16/03:30am 25.6 28.1 21.7 79 2.6 E 11 20 6 11 - - 1.8
16/03:00am 26.4 29.7 22.5 79 2.6 ESE 9 15 5 8 - - 1.8
16/02:30am 25.9 29.0 22.2 80 2.5 E 9 15 5 8 - - 1.8
16/02:00am 25.9 28.6 22.2 80 2.5 ESE 11 26 6 14 - - 1.8
16/01:30am 26.8 30.0 22.4 77 3.0 SE 9 15 5 8 - - 1.8
16/01:00am 26.8 29.9 22.2 76 3.1 ESE 9 17 5 9 - - 1.8
16/12:30am 26.8 30.5 22.6 78 2.8 SE 7 15 4 8 - - 1.8
16/12:00am 26.6 30.2 22.4 78 2.8 SSE 7 15 4 8 - - 1.8
 
Date/Time
EST
Temp
°C
App
Temp
°C
Dew
Point
°C
Rel
Hum
%
Delta-T
°C
Wind Press
QNH
hPa
Press
MSL
hPa
Rain since
9am
mm
Dir  Spd
km/h
Gust
km/h
Spd
kts
Gust
kts
15/11:30pm 26.2 30.1 22.5 80 2.5 SE 6 17 3 9 - - 1.8
15/11:00pm 26.9 30.1 21.6 72 3.5 SE 7 11 4 6 - - 1.6
15/10:30pm 27.3 30.5 22.3 74 3.4 SE 9 17 5 9 - - 1.6
15/10:00pm 27.2 30.1 21.7 72 3.7 ESE 9 17 5 9 - - 1.6
15/09:30pm 27.3 30.5 22.3 74 3.4 SE 9 15 5 8 - - 1.6
15/09:00pm 27.3 30.3 22.0 73 3.6 SE 9 15 5 8 - - 1.6
15/08:30pm 27.3 30.5 22.3 74 3.4 ESE 9 17 5 9 - - 1.6
15/08:00pm 27.4 30.0 22.6 75 3.2 ESE 13 19 7 10 - - 1.6
15/07:30pm 27.4 30.4 22.6 75 3.2 ESE 11 24 6 13 - - 1.6
15/07:00pm 27.3 30.8 23.5 80 2.6 ESE 11 19 6 10 - - 1.6
15/06:30pm 27.6 30.8 23.0 76 3.1 ESE 11 20 6 11 - - 1.6
15/06:00pm 27.9 31.4 22.8 74 3.5 SE 9 17 5 9 - - 1.6
15/05:30pm 28.1 31.7 23.0 74 3.5 SE 9 19 5 10 - - 1.6
15/05:00pm 28.1 31.7 23.7 77 3.0 SE 11 19 6 10 - - 1.6
15/04:30pm 28.1 32.1 23.7 77 3.0 SE 9 17 5 9 - - 1.6
15/04:00pm 27.9 32.1 23.5 77 3.0 SE 7 17 4 9 - - 1.6
15/03:30pm 26.9 30.7 24.0 84 2.0 SE 11 19 6 10 - - 1.6
15/03:00pm 29.3 33.0 23.3 70 4.1 ESE 9 20 5 11 - - 0.2
15/02:30pm 30.1 33.6 23.5 67 4.6 SE 11 19 6 10 - - 0.2
15/02:00pm 30.3 34.0 23.2 65 4.9 SE 9 17 5 9 - - 0.2
15/01:30pm 30.7 34.7 24.4 69 4.4 SE 11 20 6 11 - - 0.2
15/01:00pm 30.1 33.9 24.0 70 4.2 ESE 11 19 6 10 - - 0.2
15/12:30pm 29.0 32.9 24.3 76 3.3 SE 11 20 6 11 - - 0.2
15/12:00pm 29.1 33.2 24.0 74 3.5 SE 9 13 5 7 - - 0.2
15/11:30am 28.4 31.8 23.3 74 3.5 ESE 11 20 6 11 - - 0.2
15/11:00am 28.0 31.5 23.6 77 3.0 ESE 11 19 6 10 - - 0.2
15/10:30am 27.9 32.1 24.1 80 2.6 SSE 9 19 5 10 - - 0.2
15/10:00am 28.1 32.3 24.7 82 2.4 SSE 11 17 6 9 - - 0.2
15/09:30am 28.0 32.4 25.0 84 2.1 SSE 11 22 6 12 - - 0.2
15/09:00am 28.9 34.4 25.3 81 2.5 SE 6 11 3 6 - - 10.6
15/08:30am 26.2 31.0 24.1 88 1.4 SW 6 9 3 5 - - 10.6
15/08:00am 25.8 30.0 23.1 85 1.8 SW 6 11 3 6 - - 10.6
15/07:30am 26.0 31.3 23.7 87 1.6 SSE 2 6 1 3 - - 10.6
15/07:00am 25.3 29.0 23.2 88 1.4 E 9 17 5 9 - - 10.6
15/06:30am 25.2 28.2 23.3 89 1.3 ESE 13 22 7 12 - - 10.0
15/06:00am 25.4 29.5 23.3 88 1.4 SSE 7 15 4 8 - - 9.8
15/05:30am 25.5 28.9 23.4 88 1.4 ESE 11 19 6 10 - - 9.6
15/05:00am 26.1 29.5 23.4 85 1.8 SE 11 22 6 12 - - 9.6
15/04:30am 26.3 29.8 23.6 85 1.8 SE 11 15 6 8 - - 9.6
15/04:00am 25.9 29.6 23.2 85 1.8 ESE 9 17 5 9 - - 9.6
15/03:30am 25.3 29.1 23.4 89 1.3 SE 9 17 5 9 - - 9.4
15/03:00am 26.9 30.5 23.8 83 2.1 ESE 11 20 6 11 - - 7.8
15/02:30am 26.9 29.6 23.4 81 2.4 ESE 15 24 8 13 - - 7.8
15/02:00am 27.3 30.4 23.5 80 2.6 ESE 13 24 7 13 - - 7.8
15/01:30am 26.4 29.3 23.1 82 2.2 ESE 13 24 7 13 - - 7.8
15/01:00am 27.3 30.3 23.3 79 2.7 ESE 13 20 7 11 - - 7.8
15/12:30am 27.1 30.4 23.8 82 2.3 ESE 13 20 7 11 - - 7.8
15/12:00am 27.0 30.2 23.7 82 2.3 SE 13 24 7 13 - - 7.8
 
Date/Time
EST
Temp
°C
App
Temp
°C
Dew
Point
°C
Rel
Hum
%
Delta-T
°C
Wind Press
QNH
hPa
Press
MSL
hPa
Rain since
9am
mm
Dir  Spd
km/h
Gust
km/h
Spd
kts
Gust
kts
14/11:30pm 27.1 30.9 24.0 83 2.1 ESE 11 22 6 12 - - 7.8
14/11:00pm 27.0 31.0 23.7 82 2.3 SE 9 19 5 10 - - 7.4
14/10:30pm 26.9 30.2 23.8 83 2.1 SE 13 26 7 14 - - 7.4
14/10:00pm 26.3 29.3 24.0 87 1.6 SE 15 28 8 15 - - 7.4
14/09:30pm 27.5 31.6 23.3 78 2.9 SE 7 15 4 8 - - 6.0

Other Formats:

Comma delimited format used in spreadsheet applications
http://www.bom.gov.au/fwo/IDQ60801/IDQ60801.99218.axf

JavaScript Object Notation format (JSON) in row-major order
http://www.bom.gov.au/fwo/IDQ60801/IDQ60801.99218.json